Time;durP1;ratioP1;P1;durP2;ratioP2;P2;SDS_P1;SDS_P2;PMS_P1;PMS_P2;Temp;Humidity;BMP_temperature;BMP_pressure;BME280_temperature;BME280_humidity;BME280_pressure;Samples;Min_cycle;Max_cycle;Signal;HPM_P1;HPM_P2
2021/01/27 00:01:26;;;;;;;25.40;18.92;;;;;;;;;;5072563;28;20172;-69
2021/01/27 00:03:52;;;;;;;24.77;18.52;;;;;;;;;;5072250;28;20200;-74
2021/01/27 00:06:18;;;;;;;22.45;18.40;;;;;;;;;;5072493;28;20608;-74
2021/01/27 00:08:45;;;;;;;26.23;19.67;;;;;;;;;;5076233;28;20649;-73
2021/01/27 00:11:11;;;;;;;26.38;19.17;;;;;;;;;;5076532;28;20226;-75
2021/01/27 00:13:37;;;;;;;23.98;18.10;;;;;;;;;;5073160;28;20692;-75
2021/01/27 00:16:03;;;;;;;26.73;20.08;;;;;;;;;;5068096;28;20247;-74
2021/01/27 00:18:29;;;;;;;27.42;19.40;;;;;;;;;;5076129;28;20223;-74
2021/01/27 00:20:55;;;;;;;23.17;18.45;;;;;;;;;;5075868;28;20249;-71
2021/01/27 00:23:21;;;;;;;25.42;20.20;;;;;;;;;;5075919;28;20228;-70
2021/01/27 00:25:48;;;;;;;29.58;21.08;;;;;;;;;;5072607;28;20184;-74
2021/01/27 00:28:14;;;;;;;24.27;18.95;;;;;;;;;;5075711;28;20172;-72
2021/01/27 00:30:41;;;;;;;24.45;19.80;;;;;;;;;;5075744;28;20587;-72
2021/01/27 00:33:08;;;;;;;24.60;19.30;;;;;;;;;;5075824;28;20692;-72
2021/01/27 00:35:36;;;;;;;28.40;21.30;;;;;;;;;;5070859;28;20176;-73
2021/01/27 00:38:07;;;;;;;29.27;20.20;;;;;;;;;;5073336;28;20672;-72
2021/01/27 00:40:33;;;;;;;30.30;20.73;;;;;;;;;;5075569;28;20569;-74
2021/01/27 00:42:59;;;;;;;27.63;21.05;;;;;;;;;;5075609;28;20549;-73
2021/01/27 00:45:25;;;;;;;26.27;20.92;;;;;;;;;;5075137;28;20579;-74
2021/01/27 00:47:51;;;;;;;26.25;20.02;;;;;;;;;;5075607;28;20255;-71
2021/01/27 00:50:18;;;;;;;28.58;20.88;;;;;;;;;;5075641;28;20211;-73
2021/01/27 00:52:44;;;;;;;28.15;21.38;;;;;;;;;;5075301;28;20549;-74
2021/01/27 00:55:11;;;;;;;29.38;22.45;;;;;;;;;;5074513;28;20177;-72
2021/01/27 00:57:37;;;;;;;33.30;21.05;;;;;;;;;;5075544;28;20168;-73
2021/01/27 01:00:06;;;;;;;24.67;20.45;;;;;;;;;;5075288;28;20631;-72
2021/01/27 01:02:34;;;;;;;28.23;20.73;;;;;;;;;;5075392;28;20210;-74
2021/01/27 01:05:00;;;;;;;28.10;20.48;;;;;;;;;;5074835;28;20598;-73
2021/01/27 01:07:26;;;;;;;26.65;19.55;;;;;;;;;;5075271;28;20577;-73
2021/01/27 01:09:52;;;;;;;29.20;21.42;;;;;;;;;;5075122;28;20210;-73
2021/01/27 01:12:18;;;;;;;26.05;20.15;;;;;;;;;;5074980;28;20489;-70
2021/01/27 01:14:44;;;;;;;26.48;20.50;;;;;;;;;;5074715;28;20541;-71
2021/01/27 01:17:10;;;;;;;28.58;21.63;;;;;;;;;;5074110;28;20531;-74
2021/01/27 01:19:36;;;;;;;29.30;21.42;;;;;;;;;;5074842;28;20529;-72
2021/01/27 01:22:03;;;;;;;27.65;19.75;;;;;;;;;;5074012;28;20542;-72
2021/01/27 01:24:29;;;;;;;29.88;20.95;;;;;;;;;;5074236;28;20176;-75
2021/01/27 01:26:55;;;;;;;26.55;21.05;;;;;;;;;;5074940;28;20236;-72
2021/01/27 01:29:21;;;;;;;31.30;21.85;;;;;;;;;;5074355;28;20222;-73
2021/01/27 01:31:47;;;;;;;28.95;21.50;;;;;;;;;;5074314;28;20195;-74
2021/01/27 01:34:13;;;;;;;25.48;19.83;;;;;;;;;;5074081;28;20174;-73
2021/01/27 01:36:41;;;;;;;29.23;21.55;;;;;;;;;;5074015;28;20172;-73
2021/01/27 01:39:07;;;;;;;27.52;20.55;;;;;;;;;;5072444;28;20181;-72
2021/01/27 01:41:33;;;;;;;29.83;19.58;;;;;;;;;;5074458;28;20176;-73
2021/01/27 01:43:59;;;;;;;28.55;20.88;;;;;;;;;;5073992;28;20199;-73
2021/01/27 01:46:25;;;;;;;27.77;21.38;;;;;;;;;;5074191;28;20230;-73
2021/01/27 01:48:53;;;;;;;28.45;21.58;;;;;;;;;;5074047;28;20192;-74
2021/01/27 01:51:22;;;;;;;29.02;21.15;;;;;;;;;;5074448;28;20183;-72
2021/01/27 01:53:50;;;;;;;29.40;20.85;;;;;;;;;;5073858;28;20204;-71
2021/01/27 01:56:18;;;;;;;31.63;21.15;;;;;;;;;;5074207;28;20176;-72
2021/01/27 01:58:44;;;;;;;28.55;20.27;;;;;;;;;;5074331;28;20183;-72
2021/01/27 02:01:10;;;;;;;27.52;20.60;;;;;;;;;;5075751;28;20645;-70
2021/01/27 02:03:38;;;;;;;26.00;20.58;;;;;;;;;;5073853;28;20204;-75
2021/01/27 02:06:05;;;;;;;27.00;19.25;;;;;;;;;;5073839;28;20172;-72
2021/01/27 02:08:32;;;;;;;26.80;21.15;;;;;;;;;;5073235;28;20257;-74
2021/01/27 02:10:58;;;;;;;28.38;19.48;;;;;;;;;;5064131;28;20176;-72
2021/01/27 02:13:43;;;;;;;26.83;20.33;;;;;;;;;;5073725;28;20330;-72
2021/01/27 02:16:19;;;;;;;24.33;19.40;;;;;;;;;;5073520;28;20187;-71
2021/01/27 02:19:00;;;;;;;26.30;20.13;;;;;;;;;;5073192;28;20179;-73
2021/01/27 02:21:32;;;;;;;29.95;19.30;;;;;;;;;;5073274;28;20188;-72
2021/01/27 02:24:18;;;;;;;31.52;20.75;;;;;;;;;;5073020;28;20309;-72
2021/01/27 02:27:02;;;;;;;33.28;21.15;;;;;;;;;;5072363;28;20730;-70
2021/01/27 02:29:28;;;;;;;26.48;20.55;;;;;;;;;;5070339;28;20204;-71
2021/01/27 02:32:00;;;;;;;29.73;21.40;;;;;;;;;;5071842;28;20642;-72
2021/01/27 02:34:41;;;;;;;28.38;21.95;;;;;;;;;;5073021;28;20180;-72
2021/01/27 02:37:10;;;;;;;32.92;22.00;;;;;;;;;;5072109;28;20634;-71
2021/01/27 02:39:42;;;;;;;33.38;21.73;;;;;;;;;;5072865;28;20574;-73
2021/01/27 02:42:13;;;;;;;33.55;23.08;;;;;;;;;;5073432;28;20191;-74
2021/01/27 02:44:46;;;;;;;31.27;22.25;;;;;;;;;;5073281;28;20181;-72
2021/01/27 02:47:19;;;;;;;35.78;23.15;;;;;;;;;;5072856;28;20191;-74
2021/01/27 02:49:48;;;;;;;31.10;22.17;;;;;;;;;;5073275;28;20196;-75
2021/01/27 02:52:18;;;;;;;31.40;21.45;;;;;;;;;;5072475;28;20637;-74
2021/01/27 02:54:44;;;;;;;30.38;22.20;;;;;;;;;;5072885;28;20172;-72
2021/01/27 02:57:21;;;;;;;27.00;21.10;;;;;;;;;;5072832;28;20220;-74
2021/01/27 02:59:51;;;;;;;30.88;22.63;;;;;;;;;;5072161;28;20184;-72
2021/01/27 03:02:20;;;;;;;32.47;22.13;;;;;;;;;;5072616;28;20658;-73
2021/01/27 03:04:57;;;;;;;29.90;20.95;;;;;;;;;;5072885;28;20184;-74
2021/01/27 03:07:23;;;;;;;28.50;20.67;;;;;;;;;;5072166;28;20188;-74
2021/01/27 03:10:16;;;;;;;35.83;22.90;;;;;;;;;;5072498;28;20200;-71
2021/01/27 03:12:42;;;;;;;34.42;23.20;;;;;;;;;;5071434;28;20219;-75
2021/01/27 03:15:10;;;;;;;33.42;22.73;;;;;;;;;;5072644;28;20183;-74
2021/01/27 03:17:38;;;;;;;30.85;20.70;;;;;;;;;;5072765;28;20712;-72
2021/01/27 03:20:09;;;;;;;32.28;23.13;;;;;;;;;;5059392;28;20225;-72
2021/01/27 03:22:41;;;;;;;34.25;22.42;;;;;;;;;;5066613;28;20592;-74
2021/01/27 03:25:13;;;;;;;34.90;23.30;;;;;;;;;;5072707;28;20756;-75
2021/01/27 03:27:45;;;;;;;30.88;23.02;;;;;;;;;;5068405;28;20196;-75
2021/01/27 03:30:12;;;;;;;36.65;24.13;;;;;;;;;;5072271;28;20316;-73
2021/01/27 03:32:38;;;;;;;33.63;23.52;;;;;;;;;;5072625;28;20196;-74
2021/01/27 03:35:09;;;;;;;36.10;23.30;;;;;;;;;;5072350;28;20233;-72
2021/01/27 03:37:47;;;;;;;36.42;23.98;;;;;;;;;;5072225;28;20176;-76
2021/01/27 03:40:14;;;;;;;35.70;24.80;;;;;;;;;;5072404;28;20280;-72
2021/01/27 03:42:40;;;;;;;36.65;25.02;;;;;;;;;;5077005;28;20200;-72
2021/01/27 03:45:09;;;;;;;35.92;24.88;;;;;;;;;;5076184;28;20191;-73
2021/01/27 03:47:40;;;;;;;31.45;23.38;;;;;;;;;;5076579;28;20234;-71
2021/01/27 03:50:18;;;;;;;33.55;24.58;;;;;;;;;;5071186;28;20211;-74
2021/01/27 03:52:48;;;;;;;36.30;24.67;;;;;;;;;;5076461;28;20655;-73
2021/01/27 03:55:31;;;;;;;40.67;26.23;;;;;;;;;;5076205;28;20187;-70
2021/01/27 03:58:12;;;;;;;37.65;25.85;;;;;;;;;;5075734;28;20187;-72
2021/01/27 04:00:38;;;;;;;36.45;26.17;;;;;;;;;;5076430;28;20183;-74
2021/01/27 04:03:07;;;;;;;40.45;27.88;;;;;;;;;;5074994;28;20200;-74
2021/01/27 04:05:33;;;;;;;44.05;29.02;;;;;;;;;;5077131;28;20183;-72
2021/01/27 04:07:59;;;;;;;39.97;29.20;;;;;;;;;;5077483;28;20222;-71
2021/01/27 04:10:25;;;;;;;37.03;26.42;;;;;;;;;;5075789;28;20560;-71
2021/01/27 04:12:51;;;;;;;38.83;26.33;;;;;;;;;;5063961;28;20188;-74
2021/01/27 04:15:17;;;;;;;39.03;27.58;;;;;;;;;;5075862;28;20176;-71
2021/01/27 04:17:43;;;;;;;38.17;27.80;;;;;;;;;;5075911;28;20634;-72
2021/01/27 04:20:10;;;;;;;41.20;27.75;;;;;;;;;;5075791;28;20187;-72
2021/01/27 04:22:36;;;;;;;41.67;27.45;;;;;;;;;;5075898;28;21030;-73
2021/01/27 04:25:02;;;;;;;41.00;27.45;;;;;;;;;;5075695;28;20180;-71
2021/01/27 04:27:28;;;;;;;41.95;27.25;;;;;;;;;;5075816;28;20176;-72
2021/01/27 04:29:54;;;;;;;38.90;28.02;;;;;;;;;;5075727;28;20199;-72
2021/01/27 04:32:20;;;;;;;40.28;29.15;;;;;;;;;;5075641;28;20198;-73
2021/01/27 04:34:46;;;;;;;41.63;27.95;;;;;;;;;;5075101;28;20184;-73
2021/01/27 04:37:12;;;;;;;46.03;27.98;;;;;;;;;;5075853;28;20533;-74
2021/01/27 04:39:38;;;;;;;45.05;29.02;;;;;;;;;;5075208;28;20172;-74
2021/01/27 04:42:04;;;;;;;40.13;27.92;;;;;;;;;;5075614;28;20237;-74
2021/01/27 04:44:30;;;;;;;43.58;29.30;;;;;;;;;;5074839;28;20218;-74
2021/01/27 04:47:08;;;;;;;46.20;29.40;;;;;;;;;;5075248;28;20519;-73
2021/01/27 04:49:39;;;;;;;39.17;27.15;;;;;;;;;;5074879;28;20212;-72
2021/01/27 04:52:12;;;;;;;43.85;28.23;;;;;;;;;;5074736;28;20188;-74
2021/01/27 04:54:54;;;;;;;44.22;30.98;;;;;;;;;;5062028;28;20172;-74
2021/01/27 04:57:56;;;;;;;46.50;30.17;;;;;;;;;;5075345;28;20567;-74
2021/01/27 05:00:29;;;;;;;43.08;28.63;;;;;;;;;;5015919;28;20188;-73
2021/01/27 05:03:05;;;;;;;44.70;28.90;;;;;;;;;;5060135;28;20448;-74
2021/01/27 05:05:32;;;;;;;43.67;28.70;;;;;;;;;;5074342;28;20184;-73
2021/01/27 05:08:12;;;;;;;42.90;29.80;;;;;;;;;;5075147;28;20641;-73
2021/01/27 05:10:45;;;;;;;39.90;28.60;;;;;;;;;;5072854;28;20197;-72
2021/01/27 05:13:30;;;;;;;44.40;28.63;;;;;;;;;;5075068;28;20196;-72
2021/01/27 05:15:58;;;;;;;45.53;30.15;;;;;;;;;;5075334;28;20180;-71
2021/01/27 05:18:24;;;;;;;47.42;30.52;;;;;;;;;;5073528;28;20180;-72
2021/01/27 05:20:50;;;;;;;43.40;29.02;;;;;;;;;;5074873;28;20179;-74
2021/01/27 05:23:17;;;;;;;44.70;29.30;;;;;;;;;;5074714;28;20200;-71
2021/01/27 05:25:46;;;;;;;53.08;30.77;;;;;;;;;;5074634;28;20172;-75
2021/01/27 05:28:21;;;;;;;43.60;30.40;;;;;;;;;;5073623;28;20192;-70
2021/01/27 05:30:50;;;;;;;43.00;31.35;;;;;;;;;;5075104;28;20175;-73
2021/01/27 05:33:16;;;;;;;44.00;29.85;;;;;;;;;;5074126;28;20200;-71
2021/01/27 05:35:42;;;;;;;49.97;32.45;;;;;;;;;;5074362;28;20177;-74
2021/01/27 05:38:29;;;;;;;48.80;33.30;;;;;;;;;;5074258;28;20181;-71
2021/01/27 05:41:18;;;;;;;45.72;29.77;;;;;;;;;;5070140;28;20183;-71
2021/01/27 05:43:44;;;;;;;51.15;32.65;;;;;;;;;;5059479;28;20212;-74
2021/01/27 05:46:12;;;;;;;53.90;33.15;;;;;;;;;;5074367;28;20198;-71
2021/01/27 05:48:46;;;;;;;50.22;32.55;;;;;;;;;;5073372;28;20253;-71
2021/01/27 05:51:13;;;;;;;52.42;32.25;;;;;;;;;;5073930;28;20173;-72
2021/01/27 05:53:40;;;;;;;51.55;33.45;;;;;;;;;;5072596;28;20195;-72
2021/01/27 05:56:13;;;;;;;48.22;31.48;;;;;;;;;;5074025;28;20549;-71
2021/01/27 05:58:41;;;;;;;49.25;32.13;;;;;;;;;;5074104;28;20184;-73
2021/01/27 06:01:15;;;;;;;46.80;29.95;;;;;;;;;;5073756;28;20184;-72
2021/01/27 06:04:10;;;;;;;49.10;33.30;;;;;;;;;;5073109;28;20245;-73
2021/01/27 06:06:38;;;;;;;43.95;30.45;;;;;;;;;;5064732;28;20223;-72
2021/01/27 06:09:05;;;;;;;45.63;31.08;;;;;;;;;;5073966;28;20192;-73
2021/01/27 06:11:31;;;;;;;51.63;32.70;;;;;;;;;;5073319;28;20511;-72
2021/01/27 06:14:08;;;;;;;48.17;32.58;;;;;;;;;;5074159;28;20240;-74
2021/01/27 06:16:45;;;;;;;50.80;33.83;;;;;;;;;;5074154;28;20183;-71
2021/01/27 06:19:22;;;;;;;45.47;31.40;;;;;;;;;;5073083;28;20183;-73
2021/01/27 06:22:07;;;;;;;47.05;32.20;;;;;;;;;;5073651;28;20180;-73
2021/01/27 06:24:44;;;;;;;48.15;33.00;;;;;;;;;;5066365;28;20184;-73
2021/01/27 06:27:28;;;;;;;44.22;32.08;;;;;;;;;;5073401;28;20511;-74
2021/01/27 06:29:57;;;;;;;44.83;30.20;;;;;;;;;;5073702;28;20313;-74
2021/01/27 06:32:39;;;;;;;49.47;32.40;;;;;;;;;;5073184;28;20203;-75
2021/01/27 06:35:23;;;;;;;47.97;32.35;;;;;;;;;;5072941;28;20259;-71
2021/01/27 06:38:02;;;;;;;42.45;30.63;;;;;;;;;;5072891;28;20172;-70
2021/01/27 06:41:00;;;;;;;44.17;30.90;;;;;;;;;;5072918;28;20225;-73
2021/01/27 06:43:41;;;;;;;50.00;32.47;;;;;;;;;;5050482;28;20254;-75
2021/01/27 06:46:37;;;;;;;44.55;30.52;;;;;;;;;;5071846;28;20187;-74
2021/01/27 06:49:12;;;;;;;45.42;31.05;;;;;;;;;;5038387;28;20745;-75
2021/01/27 06:52:10;;;;;;;45.60;31.67;;;;;;;;;;5071812;28;20640;-74
2021/01/27 06:54:36;;;;;;;51.10;32.17;;;;;;;;;;5072625;28;20555;-74
2021/01/27 06:57:12;;;;;;;48.75;31.55;;;;;;;;;;5072814;28;20191;-72
2021/01/27 06:59:47;;;;;;;42.33;28.90;;;;;;;;;;5061053;28;20183;-76
2021/01/27 07:02:36;;;;;;;42.75;29.50;;;;;;;;;;5073334;28;20703;-75
2021/01/27 07:05:08;;;;;;;45.40;29.98;;;;;;;;;;5044112;28;20193;-72
2021/01/27 07:07:34;;;;;;;45.72;30.90;;;;;;;;;;5071505;28;20681;-72
2021/01/27 07:10:00;;;;;;;42.72;30.13;;;;;;;;;;5072720;28;20196;-72
2021/01/27 07:12:34;;;;;;;41.88;29.98;;;;;;;;;;5072892;28;20189;-75
2021/01/27 07:15:12;;;;;;;43.88;29.70;;;;;;;;;;5072523;28;20176;-74
2021/01/27 07:17:50;;;;;;;49.85;31.85;;;;;;;;;;5072800;28;20172;-73
2021/01/27 07:20:17;;;;;;;40.03;29.35;;;;;;;;;;5072843;28;20180;-72
2021/01/27 07:23:01;;;;;;;46.05;30.83;;;;;;;;;;5073075;28;20196;-74
2021/01/27 07:25:27;;;;;;;47.28;29.85;;;;;;;;;;5071996;28;20180;-74
2021/01/27 07:28:06;;;;;;;43.42;30.17;;;;;;;;;;5071483;28;20234;-74
2021/01/27 07:30:38;;;;;;;44.75;30.48;;;;;;;;;;5060910;28;20203;-74
2021/01/27 07:33:07;;;;;;;46.40;30.00;;;;;;;;;;5072821;28;20267;-72
2021/01/27 07:35:36;;;;;;;40.00;28.63;;;;;;;;;;5072688;28;20195;-71
2021/01/27 07:38:09;;;;;;;42.90;28.95;;;;;;;;;;5072577;28;20499;-70
2021/01/27 07:40:45;;;;;;;41.03;28.80;;;;;;;;;;5072605;28;20583;-74
2021/01/27 07:43:23;;;;;;;41.17;29.90;;;;;;;;;;5068753;28;20257;-73
2021/01/27 07:45:55;;;;;;;42.65;29.27;;;;;;;;;;5063394;28;20245;-73
2021/01/27 07:48:21;;;;;;;45.83;31.00;;;;;;;;;;5061285;28;20187;-74
2021/01/27 07:50:52;;;;;;;45.60;29.10;;;;;;;;;;5069827;28;20195;-73
2021/01/27 07:53:29;;;;;;;43.03;29.15;;;;;;;;;;5068262;28;20254;-72
2021/01/27 07:56:14;;;;;;;37.08;28.67;;;;;;;;;;5066845;28;20180;-73
2021/01/27 07:59:00;;;;;;;38.63;28.10;;;;;;;;;;5068990;28;20181;-74
2021/01/27 08:01:29;;;;;;;48.83;33.42;;;;;;;;;;5062649;28;20184;-76
2021/01/27 08:04:13;;;;;;;43.38;29.17;;;;;;;;;;5067822;28;20212;-76
2021/01/27 08:06:42;;;;;;;38.83;28.17;;;;;;;;;;5070586;28;20203;-72
2021/01/27 08:09:08;;;;;;;40.90;28.13;;;;;;;;;;5074348;28;20203;-73
2021/01/27 08:11:42;;;;;;;37.92;27.58;;;;;;;;;;5068296;28;20176;-73
2021/01/27 08:14:10;;;;;;;35.83;28.10;;;;;;;;;;5067033;28;20184;-72
2021/01/27 08:16:37;;;;;;;45.22;31.60;;;;;;;;;;5070352;28;20211;-72
2021/01/27 08:19:12;;;;;;;38.42;28.13;;;;;;;;;;5068546;28;20184;-75
2021/01/27 08:21:50;;;;;;;39.30;28.23;;;;;;;;;;5067921;28;20194;-74
2021/01/27 08:24:35;;;;;;;38.10;28.23;;;;;;;;;;5067821;28;20211;-71
2021/01/27 08:27:10;;;;;;;40.50;27.90;;;;;;;;;;5068089;28;20653;-75
2021/01/27 08:29:40;;;;;;;41.45;27.92;;;;;;;;;;5071586;28;20195;-72
2021/01/27 08:32:27;;;;;;;36.58;27.30;;;;;;;;;;5068834;28;20287;-73
2021/01/27 08:34:54;;;;;;;37.63;27.73;;;;;;;;;;5070918;28;20211;-73
2021/01/27 08:37:27;;;;;;;37.50;29.50;;;;;;;;;;5069761;28;20212;-75
2021/01/27 08:40:12;;;;;;;63.35;37.63;;;;;;;;;;5069421;28;20548;-76
2021/01/27 08:42:40;;;;;;;47.90;27.75;;;;;;;;;;5072106;28;20916;-73
2021/01/27 08:45:19;;;;;;;37.85;26.33;;;;;;;;;;5071435;28;20180;-72
2021/01/27 08:47:45;;;;;;;35.10;26.45;;;;;;;;;;5071839;28;20665;-73
2021/01/27 08:50:32;;;;;;;36.70;26.35;;;;;;;;;;5071580;28;20204;-73
2021/01/27 08:53:06;;;;;;;33.67;25.17;;;;;;;;;;5071587;28;20204;-73
2021/01/27 08:55:52;;;;;;;34.15;24.58;;;;;;;;;;5071629;28;20820;-73
2021/01/27 08:58:31;;;;;;;30.92;24.83;;;;;;;;;;5070609;28;20633;-74
2021/01/27 09:01:03;;;;;;;31.17;23.48;;;;;;;;;;5070026;28;20183;-75
2021/01/27 09:03:38;;;;;;;28.85;23.70;;;;;;;;;;5059785;28;20313;-71
2021/01/27 09:06:19;;;;;;;29.33;22.02;;;;;;;;;;5071301;28;20818;-73
2021/01/27 09:08:45;;;;;;;31.13;22.33;;;;;;;;;;5065401;28;20207;-72
2021/01/27 09:11:12;;;;;;;28.88;23.00;;;;;;;;;;5061974;28;20185;-74
2021/01/27 09:13:41;;;;;;;26.17;21.33;;;;;;;;;;5071398;28;20279;-75
2021/01/27 09:16:31;;;;;;;27.05;20.95;;;;;;;;;;5062952;28;20177;-73
2021/01/27 09:19:15;;;;;;;25.40;19.15;;;;;;;;;;5076574;28;20518;-73
2021/01/27 09:21:41;;;;;;;25.20;19.42;;;;;;;;;;5070939;28;20295;-74
2021/01/27 09:24:22;;;;;;;22.23;18.88;;;;;;;;;;5079068;28;20270;-75
2021/01/27 09:26:50;;;;;;;17.17;15.30;;;;;;;;;;5072081;28;20207;-75
2021/01/27 09:29:30;;;;;;;18.15;15.40;;;;;;;;;;5074115;28;20223;-75
2021/01/27 09:31:57;;;;;;;18.75;15.25;;;;;;;;;;5065014;28;20188;-70
2021/01/27 09:34:28;;;;;;;17.05;14.98;;;;;;;;;;5067343;28;20176;-73
2021/01/27 09:36:59;;;;;;;18.60;15.68;;;;;;;;;;5076668;28;20183;-74
2021/01/27 09:39:27;;;;;;;17.52;15.50;;;;;;;;;;5069016;28;20191;-73
2021/01/27 09:41:54;;;;;;;17.40;15.27;;;;;;;;;;5070850;28;20252;-74
2021/01/27 09:44:25;;;;;;;19.58;15.20;;;;;;;;;;5076111;28;20263;-74
2021/01/27 09:46:51;;;;;;;18.13;13.60;;;;;;;;;;5072200;28;20263;-72
2021/01/27 09:49:17;;;;;;;18.52;15.05;;;;;;;;;;5064921;28;20212;-72
2021/01/27 09:51:50;;;;;;;15.40;13.52;;;;;;;;;;5061586;28;20185;-76
2021/01/27 09:54:18;;;;;;;17.52;14.48;;;;;;;;;;5055393;28;20601;-76
2021/01/27 09:56:44;;;;;;;15.35;13.75;;;;;;;;;;5063606;28;20173;-74
2021/01/27 09:59:13;;;;;;;17.52;13.90;;;;;;;;;;5068207;28;20183;-72
2021/01/27 10:01:44;;;;;;;17.17;13.35;;;;;;;;;;5062245;28;20181;-71
2021/01/27 10:04:12;;;;;;;13.55;12.10;;;;;;;;;;5069680;28;20184;-70
2021/01/27 10:06:42;;;;;;;15.73;13.35;;;;;;;;;;5070048;28;20892;-74
2021/01/27 10:09:16;;;;;;;15.48;11.88;;;;;;;;;;5069662;28;20282;-72
2021/01/27 10:11:42;;;;;;;13.10;11.30;;;;;;;;;;5072635;28;20176;-73
2021/01/27 10:14:08;;;;;;;13.82;11.98;;;;;;;;;;5070375;28;20203;-72
2021/01/27 10:16:47;;;;;;;12.80;11.50;;;;;;;;;;5060883;28;20881;-74
2021/01/27 10:19:13;;;;;;;13.57;11.68;;;;;;;;;;5070406;28;20668;-74
2021/01/27 10:21:44;;;;;;;16.83;14.35;;;;;;;;;;5062597;28;20546;-72
2021/01/27 10:24:10;;;;;;;14.15;11.40;;;;;;;;;;5060157;28;20592;-75
2021/01/27 10:26:40;;;;;;;13.57;10.90;;;;;;;;;;5060253;28;20664;-74
2021/01/27 10:29:15;;;;;;;12.95;10.52;;;;;;;;;;5069947;28;20204;-74
2021/01/27 10:31:43;;;;;;;12.45;11.15;;;;;;;;;;5061597;28;20179;-76
2021/01/27 10:34:09;;;;;;;12.77;10.65;;;;;;;;;;5066985;28;20584;-76
2021/01/27 10:36:38;;;;;;;14.00;11.00;;;;;;;;;;5055232;28;20193;-76
2021/01/27 10:39:10;;;;;;;15.05;12.88;;;;;;;;;;5063323;28;20533;-73
2021/01/27 10:41:36;;;;;;;13.75;11.23;;;;;;;;;;5064446;28;20212;-74
2021/01/27 10:44:21;;;;;;;11.95;10.77;;;;;;;;;;5059382;28;20204;-76
2021/01/27 10:46:47;;;;;;;14.27;11.27;;;;;;;;;;5061817;28;20267;-75
2021/01/27 10:49:14;;;;;;;13.40;11.15;;;;;;;;;;5066776;28;20612;-70
2021/01/27 10:51:42;;;;;;;13.50;11.68;;;;;;;;;;5064011;28;20175;-74
2021/01/27 10:54:08;;;;;;;12.63;11.13;;;;;;;;;;5064201;28;20222;-73
2021/01/27 10:56:34;;;;;;;12.70;10.80;;;;;;;;;;5064851;28;20172;-72
2021/01/27 10:59:00;;;;;;;12.90;11.60;;;;;;;;;;5067335;28;20275;-74
2021/01/27 11:01:26;;;;;;;12.75;11.02;;;;;;;;;;5062972;28;20586;-73
2021/01/27 11:03:52;;;;;;;13.65;11.50;;;;;;;;;;5063052;28;20214;-72
2021/01/27 11:06:18;;;;;;;12.20;10.63;;;;;;;;;;5060160;28;20175;-74
2021/01/27 11:08:45;;;;;;;13.13;10.90;;;;;;;;;;5059556;28;20181;-72
2021/01/27 11:11:13;;;;;;;13.65;11.65;;;;;;;;;;5064993;28;20238;-76
2021/01/27 11:13:39;;;;;;;12.63;11.02;;;;;;;;;;5059260;28;20760;-72
2021/01/27 11:16:09;;;;;;;19.08;14.13;;;;;;;;;;5069305;28;20187;-71
2021/01/27 11:18:35;;;;;;;13.98;10.82;;;;;;;;;;5068072;28;20214;-73
2021/01/27 11:21:02;;;;;;;14.10;11.88;;;;;;;;;;5063911;28;20183;-74
2021/01/27 11:23:28;;;;;;;13.55;10.27;;;;;;;;;;5068108;28;20203;-74
2021/01/27 11:25:54;;;;;;;12.73;10.00;;;;;;;;;;5066088;28;20188;-73
2021/01/27 11:28:21;;;;;;;16.35;11.23;;;;;;;;;;5062064;28;20180;-74
2021/01/27 11:30:49;;;;;;;15.52;10.85;;;;;;;;;;5063355;28;20240;-76
2021/01/27 11:33:15;;;;;;;11.95;9.98;;;;;;;;;;5064690;28;20696;-74
2021/01/27 11:35:41;;;;;;;13.10;10.70;;;;;;;;;;5060805;28;20196;-72
2021/01/27 11:38:07;;;;;;;11.40;10.02;;;;;;;;;;5064876;28;20176;-73
2021/01/27 11:40:33;;;;;;;12.80;9.55;;;;;;;;;;5060431;28;20176;-71
2021/01/27 11:42:59;;;;;;;12.23;9.05;;;;;;;;;;5064644;28;20251;-77
2021/01/27 11:45:25;;;;;;;13.80;10.10;;;;;;;;;;5060873;28;20184;-75
2021/01/27 11:47:51;;;;;;;16.15;10.50;;;;;;;;;;5057943;28;20184;-74
2021/01/27 11:50:19;;;;;;;15.77;9.30;;;;;;;;;;5067441;28;20278;-73
2021/01/27 11:52:47;;;;;;;12.93;9.65;;;;;;;;;;5068355;28;20254;-73
2021/01/27 11:55:13;;;;;;;11.27;9.10;;;;;;;;;;5063362;28;20649;-72
2021/01/27 11:57:39;;;;;;;10.00;8.73;;;;;;;;;;5068271;28;20708;-75
2021/01/27 12:00:06;;;;;;;10.82;8.68;;;;;;;;;;5060056;28;20736;-72
2021/01/27 12:02:32;;;;;;;9.82;8.80;;;;;;;;;;5067246;28;20216;-71
2021/01/27 12:04:58;;;;;;;10.23;7.65;;;;;;;;;;5072215;28;20180;-73
2021/01/27 12:07:24;;;;;;;8.80;7.05;;;;;;;;;;5065359;28;20664;-74
2021/01/27 12:09:50;;;;;;;9.38;7.60;;;;;;;;;;5066374;28;20208;-76
2021/01/27 12:12:16;;;;;;;10.18;8.20;;;;;;;;;;5072360;28;20271;-73
2021/01/27 12:14:42;;;;;;;10.27;7.22;;;;;;;;;;5067164;28;20214;-73
2021/01/27 12:17:09;;;;;;;10.30;6.82;;;;;;;;;;5066470;28;20184;-72
2021/01/27 12:19:35;;;;;;;7.45;6.65;;;;;;;;;;5061693;28;20184;-72
2021/01/27 12:22:01;;;;;;;10.27;6.70;;;;;;;;;;5066001;28;20202;-73
2021/01/27 12:24:27;;;;;;;7.22;6.45;;;;;;;;;;5071398;28;20188;-74
2021/01/27 12:26:53;;;;;;;9.10;6.90;;;;;;;;;;5076041;28;20203;-73
2021/01/27 12:29:21;;;;;;;8.73;6.75;;;;;;;;;;5062639;28;20614;-73
2021/01/27 12:31:48;;;;;;;8.48;7.30;;;;;;;;;;5070157;28;20569;-75
2021/01/27 12:34:14;;;;;;;8.85;6.68;;;;;;;;;;5060421;28;20189;-73
2021/01/27 12:36:40;;;;;;;8.25;6.43;;;;;;;;;;5061715;28;20177;-72
2021/01/27 12:39:06;;;;;;;7.18;6.40;;;;;;;;;;5064877;28;20203;-73
2021/01/27 12:41:32;;;;;;;8.20;6.47;;;;;;;;;;5070700;28;20176;-73
2021/01/27 12:43:58;;;;;;;8.10;6.28;;;;;;;;;;5070110;28;20207;-75
2021/01/27 12:46:25;;;;;;;8.73;5.93;;;;;;;;;;5071967;28;20176;-73
2021/01/27 12:48:51;;;;;;;8.73;6.60;;;;;;;;;;5062264;28;20191;-76
2021/01/27 12:51:17;;;;;;;6.35;5.75;;;;;;;;;;5060054;28;20183;-73
2021/01/27 12:53:44;;;;;;;7.90;7.10;;;;;;;;;;5058418;28;20196;-74
2021/01/27 12:56:10;;;;;;;7.38;6.03;;;;;;;;;;5069613;28;20176;-74
2021/01/27 12:58:36;;;;;;;9.05;6.30;;;;;;;;;;5066986;28;20214;-71
2021/01/27 13:01:02;;;;;;;7.00;6.30;;;;;;;;;;5059926;28;20188;-74
2021/01/27 13:03:28;;;;;;;8.15;6.18;;;;;;;;;;5065637;28;20287;-74
2021/01/27 13:05:54;;;;;;;9.40;8.40;;;;;;;;;;5062458;28;20536;-74
2021/01/27 13:08:20;;;;;;;7.78;6.40;;;;;;;;;;5065797;28;20220;-72
2021/01/27 13:10:46;;;;;;;6.53;5.90;;;;;;;;;;5070941;28;20646;-73
2021/01/27 13:13:14;;;;;;;8.32;6.25;;;;;;;;;;5068918;28;20583;-73
2021/01/27 13:15:40;;;;;;;9.43;6.75;;;;;;;;;;5064125;28;20196;-73
2021/01/27 13:18:07;;;;;;;8.23;6.85;;;;;;;;;;5069311;28;20172;-73
2021/01/27 13:20:33;;;;;;;14.27;10.63;;;;;;;;;;5070737;28;20896;-72
2021/01/27 13:23:00;;;;;;;7.18;6.47;;;;;;;;;;5070675;28;20577;-72
2021/01/27 13:25:26;;;;;;;6.85;6.03;;;;;;;;;;5068766;28;20927;-73
2021/01/27 13:27:53;;;;;;;6.63;6.03;;;;;;;;;;5061439;28;20199;-71
2021/01/27 13:30:20;;;;;;;6.07;5.50;;;;;;;;;;5065213;28;20208;-72
2021/01/27 13:32:46;;;;;;;11.75;7.63;;;;;;;;;;5070942;28;20200;-73
2021/01/27 13:35:15;;;;;;;6.38;5.78;;;;;;;;;;5067987;28;20201;-71
2021/01/27 13:37:41;;;;;;;6.88;6.18;;;;;;;;;;5066708;28;20212;-72
2021/01/27 13:40:08;;;;;;;7.65;6.47;;;;;;;;;;5068937;28;20191;-71
2021/01/27 13:42:34;;;;;;;7.85;5.75;;;;;;;;;;5060634;28;20211;-74
2021/01/27 13:45:00;;;;;;;6.20;5.60;;;;;;;;;;5070327;28;20763;-75
2021/01/27 13:47:26;;;;;;;7.28;6.38;;;;;;;;;;5068206;28;20216;-73
2021/01/27 13:49:52;;;;;;;8.45;6.68;;;;;;;;;;5070526;28;20200;-72
2021/01/27 13:52:19;;;;;;;7.50;6.80;;;;;;;;;;5064743;28;20565;-75
2021/01/27 13:54:45;;;;;;;8.15;7.35;;;;;;;;;;5065174;28;20595;-73
2021/01/27 13:57:11;;;;;;;9.32;7.57;;;;;;;;;;5066754;28;20184;-75
2021/01/27 13:59:37;;;;;;;8.45;7.22;;;;;;;;;;5064365;28;20176;-74
2021/01/27 14:02:03;;;;;;;7.75;6.95;;;;;;;;;;5066069;28;20204;-75
2021/01/27 14:04:29;;;;;;;8.30;7.43;;;;;;;;;;5065879;28;20271;-74
2021/01/27 14:06:55;;;;;;;7.72;6.97;;;;;;;;;;5066244;28;20200;-73
2021/01/27 14:09:21;;;;;;;7.55;6.85;;;;;;;;;;5062478;28;20212;-73
2021/01/27 14:11:48;;;;;;;7.93;7.13;;;;;;;;;;5070272;28;20176;-73
2021/01/27 14:14:14;;;;;;;9.13;7.43;;;;;;;;;;5065634;28;20173;-74
2021/01/27 14:16:40;;;;;;;7.72;6.90;;;;;;;;;;5066875;28;20245;-71
2021/01/27 14:19:06;;;;;;;9.02;7.60;;;;;;;;;;5066707;28;20181;-72
2021/01/27 14:21:32;;;;;;;8.77;7.88;;;;;;;;;;5066925;28;20184;-73
2021/01/27 14:23:58;;;;;;;8.38;7.40;;;;;;;;;;5069210;28;20200;-73
2021/01/27 14:26:24;;;;;;;8.32;7.53;;;;;;;;;;5067828;28;20184;-73
2021/01/27 14:28:51;;;;;;;9.88;8.90;;;;;;;;;;5069933;28;20815;-72
2021/01/27 14:31:17;;;;;;;9.80;7.60;;;;;;;;;;5070571;28;20723;-73
2021/01/27 14:33:43;;;;;;;8.40;7.55;;;;;;;;;;5069724;28;20746;-74
2021/01/27 14:36:09;;;;;;;9.65;8.27;;;;;;;;;;5068474;28;20573;-74
2021/01/27 14:38:35;;;;;;;10.50;8.57;;;;;;;;;;5079202;28;20183;-72